Ledyard, New York
Current Conditions -  °F | °C
As of 12:56 PM on Saturday 25 Oct 2014 (Local Time) from KITH Reporting Station
Scattered Clouds Scattered Clouds  
Wind Chill: 63°   Ceiling: Unl
Heat Index: 63°   Visibility: 10mi
Dew Point: 46°   Wind: 9mph
Humidity: 54%   Direction: 250°WSW
Pressure: 29.72"   Gusts: NA
Location:  42.7483°N, 76.6573°W
Report Text: KITH 251656Z 25008KT 10SM SCT050 17/08 A2972 RMK AO2 T01720077 SLP067
Loading
Personal Weather Stations






























Interactive Weather Map
Tropical Storm Tracking
New forecast layout! Learn more

10-Day Weather Forecast

Advertisements
Track Severe Weather on mobile